createdAt,value
2018-04-07T00:01:47.806Z,2.03
2018-04-07T00:04:16.191Z,2.20
2018-04-07T00:06:44.544Z,2.23
2018-04-07T00:09:12.891Z,2.33
2018-04-07T00:11:41.271Z,2.60
2018-04-07T00:14:09.568Z,2.00
2018-04-07T00:16:38.654Z,1.97
2018-04-07T00:19:07.475Z,2.40
2018-04-07T00:21:35.901Z,2.10
2018-04-07T00:24:04.223Z,2.20
2018-04-07T00:26:32.675Z,2.53
2018-04-07T00:29:01.025Z,2.40
2018-04-07T00:31:29.376Z,1.87
2018-04-07T00:33:57.752Z,2.10
2018-04-07T00:36:26.131Z,1.87
2018-04-07T00:38:54.471Z,2.23
2018-04-07T00:41:23.131Z,1.87
2018-04-07T00:43:51.431Z,2.53
2018-04-07T00:46:19.792Z,1.97
2018-04-07T00:48:48.178Z,2.03
2018-04-07T00:51:16.543Z,2.40
2018-04-07T00:53:44.978Z,2.03
2018-04-07T00:56:13.456Z,2.23
2018-04-07T00:58:41.889Z,1.80
2018-04-07T01:01:10.212Z,2.00
2018-04-07T01:03:38.967Z,2.30
2018-04-07T01:06:07.316Z,2.33
2018-04-07T01:08:35.736Z,1.93
2018-04-07T01:11:04.181Z,2.10
2018-04-07T01:13:32.589Z,2.00
2018-04-07T01:16:00.912Z,2.00
2018-04-07T01:18:29.362Z,2.70
2018-04-07T01:20:57.746Z,2.00
2018-04-07T01:23:26.228Z,2.33
2018-04-07T01:25:55.524Z,2.43
2018-04-07T01:28:23.905Z,2.30
2018-04-07T01:30:52.246Z,1.80
2018-04-07T01:33:21.096Z,2.47
2018-04-07T01:35:50.191Z,2.00
2018-04-07T01:38:18.495Z,2.07
2018-04-07T01:40:46.845Z,2.13
2018-04-07T01:43:15.971Z,2.80
2018-04-07T01:45:44.299Z,2.27
2018-04-07T01:48:12.723Z,2.60
2018-04-07T01:50:41.058Z,2.27
2018-04-07T01:53:09.400Z,2.30
2018-04-07T01:55:37.736Z,2.40
2018-04-07T01:58:06.814Z,2.47
2018-04-07T02:00:35.129Z,2.20
2018-04-07T02:03:03.525Z,2.40
2018-04-07T02:05:31.868Z,2.10
2018-04-07T02:08:00.959Z,2.43
2018-04-07T02:10:30.194Z,2.23
2018-04-07T02:12:58.528Z,2.00
2018-04-07T02:15:27.655Z,2.20
2018-04-07T02:17:56.029Z,2.57
2018-04-07T02:20:24.353Z,2.50
2018-04-07T02:22:52.692Z,2.27
2018-04-07T02:25:21.067Z,2.73
2018-04-07T02:27:49.453Z,2.73
2018-04-07T02:30:17.793Z,2.27
2018-04-07T02:32:46.720Z,1.93
2018-04-07T02:35:15.672Z,2.30
2018-04-07T02:37:44.020Z,2.10
2018-04-07T02:40:12.368Z,2.90
2018-04-07T02:42:40.747Z,1.60
2018-04-07T02:45:09.089Z,2.10
2018-04-07T02:47:37.422Z,2.70
2018-04-07T02:50:05.744Z,2.00
2018-04-07T02:52:34.162Z,2.43
2018-04-07T02:55:02.946Z,2.30
2018-04-07T02:57:31.246Z,2.60
2018-04-07T02:59:59.555Z,2.70
2018-04-07T03:02:27.916Z,2.53
2018-04-07T03:04:56.256Z,2.60
2018-04-07T03:07:24.591Z,2.53
2018-04-07T03:09:52.929Z,3.40
2018-04-07T03:12:21.244Z,3.10
2018-04-07T03:14:49.555Z,2.60
2018-04-07T03:17:18.751Z,3.27
2018-04-07T03:19:47.864Z,2.77
2018-04-07T03:22:16.193Z,2.97
2018-04-07T03:24:44.527Z,2.60
2018-04-07T03:27:12.855Z,3.00
2018-04-07T03:29:41.212Z,2.47
2018-04-07T03:32:09.565Z,2.13
2018-04-07T03:34:37.919Z,2.87
2018-04-07T03:37:06.391Z,2.20
2018-04-07T03:39:34.938Z,2.80
2018-04-07T03:42:03.264Z,2.50
2018-04-07T03:44:32.342Z,2.83
2018-04-07T03:47:00.707Z,2.95
2018-04-07T03:49:29.041Z,2.97
2018-04-07T03:51:57.385Z,3.60
2018-04-07T03:54:26.497Z,3.10
2018-04-07T03:56:55.566Z,3.17
2018-04-07T03:59:23.887Z,2.77
2018-04-07T04:01:52.511Z,3.10
2018-04-07T04:04:20.875Z,3.20
2018-04-07T04:06:49.182Z,2.87
2018-04-07T04:09:17.538Z,2.83
2018-04-07T04:11:45.870Z,2.77
2018-04-07T04:14:14.959Z,3.00
2018-04-07T04:16:44.100Z,2.30
2018-04-07T04:19:12.438Z,3.05
2018-04-07T04:21:40.790Z,2.90
2018-04-07T04:24:09.222Z,3.00
2018-04-07T04:26:37.535Z,2.33
2018-04-07T04:29:05.852Z,2.30
2018-04-07T04:31:35.040Z,2.80
2018-04-07T04:34:03.367Z,2.50
2018-04-07T04:36:31.717Z,2.27
2018-04-07T04:39:00.150Z,3.03
2018-04-07T04:41:28.487Z,2.70
2018-04-07T04:43:56.840Z,2.20
2018-04-07T04:46:25.294Z,2.92
2018-04-07T04:48:53.637Z,3.03
2018-04-07T04:51:21.957Z,2.80
2018-04-07T04:53:50.316Z,2.73
2018-04-07T04:56:18.661Z,2.57
2018-04-07T04:58:46.970Z,3.72
2018-04-07T05:01:15.311Z,3.20
2018-04-07T05:03:43.680Z,3.23
2018-04-07T05:06:12.001Z,3.60
2018-04-07T05:08:40.514Z,2.80
2018-04-07T05:11:08.834Z,3.62
2018-04-07T05:13:37.912Z,2.60
2018-04-07T05:16:07.036Z,2.90
2018-04-07T05:18:35.379Z,2.60
2018-04-07T05:21:03.752Z,3.10
2018-04-07T05:23:32.902Z,3.47
2018-04-07T05:26:01.249Z,3.40
2018-04-07T05:28:29.592Z,2.97
2018-04-07T05:30:58.152Z,3.23
2018-04-07T05:33:26.473Z,3.27
2018-04-07T05:35:54.846Z,3.17
2018-04-07T05:38:24.033Z,3.30
2018-04-07T05:40:52.378Z,3.10
2018-04-07T05:43:20.713Z,2.97
2018-04-07T05:45:49.896Z,3.33
2018-04-07T05:48:18.236Z,3.00
2018-04-07T05:50:46.571Z,3.63
2018-04-07T05:53:15.814Z,3.87
2018-04-07T05:55:44.182Z,3.40
2018-04-07T05:58:12.524Z,2.90
2018-04-07T06:00:41.667Z,3.17
2018-04-07T06:03:10.079Z,3.13
2018-04-07T06:05:38.421Z,3.63
2018-04-07T06:08:06.816Z,4.03
2018-04-07T06:10:35.253Z,3.17
2018-04-07T06:13:04.424Z,3.90
2018-04-07T06:15:33.681Z,3.63
2018-04-07T06:18:02.004Z,4.90
2018-04-07T06:20:30.343Z,3.23
2018-04-07T06:22:58.700Z,3.80
2018-04-07T06:25:27.034Z,3.47
2018-04-07T06:27:55.380Z,3.80
2018-04-07T06:30:23.747Z,3.60
2018-04-07T06:32:52.081Z,3.70
2018-04-07T06:35:21.201Z,4.07
2018-04-07T06:37:50.906Z,3.77
2018-04-07T06:40:19.978Z,3.80
2018-04-07T06:42:48.331Z,4.03
2018-04-07T06:45:16.774Z,3.37
2018-04-07T06:47:45.135Z,3.77
2018-04-07T06:50:14.233Z,4.93
2018-04-07T06:52:43.372Z,4.00
2018-04-07T06:55:11.723Z,4.60
2018-04-07T06:57:40.800Z,5.10
2018-04-07T07:00:09.328Z,4.23
2018-04-07T07:02:37.672Z,4.03
2018-04-07T07:05:06.776Z,4.40
2018-04-07T07:07:35.177Z,4.30
2018-04-07T07:10:03.521Z,4.43
2018-04-07T07:12:32.608Z,4.70
2018-04-07T07:15:01.747Z,4.10
2018-04-07T07:17:30.093Z,5.10
2018-04-07T07:19:59.177Z,4.47
2018-04-07T07:22:28.004Z,4.40
2018-04-07T07:24:56.310Z,4.43
2018-04-07T07:27:24.712Z,5.03
2018-04-07T07:29:53.133Z,4.53
2018-04-07T07:32:21.454Z,4.53
2018-04-07T07:34:49.797Z,4.73
2018-04-07T07:37:18.180Z,5.20
2018-04-07T07:39:46.576Z,4.97
2018-04-07T07:42:14.930Z,5.10
2018-04-07T07:44:43.412Z,5.37
2018-04-07T07:47:11.758Z,6.80
2018-04-07T07:49:40.147Z,5.90
2018-04-07T07:52:08.572Z,5.40
2018-04-07T07:54:36.929Z,5.70
2018-04-07T07:57:05.276Z,6.17
2018-04-07T07:59:33.655Z,6.43
2018-04-07T08:02:01.996Z,5.60
2018-04-07T08:04:30.343Z,5.53
2018-04-07T08:06:58.967Z,5.70
2018-04-07T08:09:27.292Z,5.37
2018-04-07T08:11:55.638Z,6.63
2018-04-07T08:14:24.012Z,5.67
2018-04-07T08:16:52.338Z,5.93
2018-04-07T08:19:21.416Z,6.77
2018-04-07T08:21:50.553Z,6.10
2018-04-07T08:24:18.891Z,5.93
2018-04-07T08:26:47.994Z,6.47
2018-04-07T08:29:16.436Z,6.20
2018-04-07T08:31:44.783Z,6.40
2018-04-07T08:34:13.838Z,6.20
2018-04-07T08:36:42.232Z,6.70
2018-04-07T08:39:10.596Z,6.33
2018-04-07T08:41:38.980Z,7.03
2018-04-07T08:44:07.350Z,6.10
2018-04-07T08:46:35.809Z,6.87
2018-04-07T08:49:04.609Z,6.77
2018-04-07T08:51:35.908Z,7.20
2018-04-07T08:54:04.421Z,6.43
2018-04-07T08:56:32.910Z,7.10
2018-04-07T08:59:01.320Z,6.93
2018-04-07T09:01:30.503Z,7.40
2018-04-07T09:03:58.877Z,7.57
2018-04-07T09:06:27.354Z,7.73
2018-04-07T09:08:55.728Z,8.17
2018-04-07T09:11:24.150Z,6.47
2018-04-07T09:13:52.848Z,7.30
2018-04-07T09:16:21.224Z,7.40
2018-04-07T09:18:50.356Z,8.10
2018-04-07T09:21:18.753Z,7.37
2018-04-07T09:23:47.125Z,7.80
2018-04-07T09:26:15.455Z,7.30
2018-04-07T09:28:44.617Z,7.60
2018-04-07T09:31:18.538Z,8.53
2018-04-07T09:33:47.315Z,8.77
2018-04-07T09:36:15.744Z,8.13
2018-04-07T09:38:44.156Z,9.27
2018-04-07T09:41:12.649Z,8.63
2018-04-07T09:43:41.038Z,9.50
2018-04-07T09:46:09.464Z,8.03
2018-04-07T09:48:37.875Z,7.83
2018-04-07T09:51:06.368Z,9.70
2018-04-07T09:53:35.545Z,9.20
2018-04-07T09:56:04.276Z,8.30
2018-04-07T09:58:32.640Z,8.07
2018-04-07T10:01:01.042Z,9.87
2018-04-07T10:03:30.271Z,10.17
2018-04-07T10:05:58.679Z,9.63
2018-04-07T10:08:27.054Z,9.17
2018-04-07T10:10:55.607Z,9.73
2018-04-07T10:13:24.708Z,10.37
2018-04-07T10:15:53.049Z,9.27
2018-04-07T10:20:56.958Z,9.10
2018-04-07T10:23:25.351Z,10.03
2018-04-07T10:25:53.725Z,9.20
2018-04-07T10:28:22.042Z,12.57
2018-04-07T10:30:50.389Z,9.20
2018-04-07T10:33:18.727Z,10.03
2018-04-07T10:35:47.177Z,9.87
2018-04-07T10:38:16.374Z,10.03
2018-04-07T10:40:44.788Z,9.37
2018-04-07T10:43:13.138Z,10.30
2018-04-07T10:45:42.466Z,9.50
2018-04-07T10:48:10.833Z,10.53
2018-04-07T10:50:39.185Z,9.87
2018-04-07T10:53:07.630Z,8.93
2018-04-07T10:55:35.971Z,9.90
2018-04-07T10:58:04.297Z,9.27
2018-04-07T11:00:32.815Z,10.03
2018-04-07T11:03:01.912Z,9.07
2018-04-07T11:05:31.011Z,9.60
2018-04-07T11:08:00.167Z,10.00
2018-04-07T11:10:28.601Z,9.13
2018-04-07T11:12:57.705Z,9.83
2018-04-07T11:15:26.054Z,9.20
2018-04-07T11:17:54.382Z,9.70
2018-04-07T11:20:22.703Z,8.80
2018-04-07T11:22:51.122Z,8.90
2018-04-07T11:25:19.470Z,9.60
2018-04-07T11:27:48.562Z,9.10
2018-04-07T11:30:17.661Z,8.30
2018-04-07T11:32:46.834Z,9.27
2018-04-07T11:35:15.170Z,9.70
2018-04-07T11:37:44.424Z,8.63
2018-04-07T11:40:12.845Z,9.10
2018-04-07T11:42:41.295Z,9.00
2018-04-07T11:45:10.197Z,8.80
2018-04-07T11:47:39.316Z,8.40
2018-04-07T11:50:07.673Z,9.90
2018-04-07T11:52:36.054Z,8.33
2018-04-07T11:55:04.373Z,8.77
2018-04-07T11:57:32.869Z,9.47
2018-04-07T12:00:01.221Z,9.03
2018-04-07T12:02:29.651Z,9.03
2018-04-07T12:04:58.780Z,8.83
2018-04-07T12:07:27.292Z,8.60
2018-04-07T12:09:55.642Z,8.73
2018-04-07T12:12:24.013Z,9.20
2018-04-07T12:14:52.542Z,9.60
2018-04-07T12:17:20.907Z,9.50
2018-04-07T12:19:49.264Z,9.30
2018-04-07T12:22:17.733Z,8.70
2018-04-07T12:24:46.099Z,9.00
2018-04-07T12:27:15.212Z,8.70
2018-04-07T12:29:44.520Z,9.00
2018-04-07T12:32:12.929Z,9.43
2018-04-07T12:34:41.281Z,9.43
2018-04-07T12:37:09.805Z,9.23
2018-04-07T12:39:38.223Z,9.20
2018-04-07T12:42:12.865Z,9.30
2018-04-07T12:44:41.286Z,9.37
2018-04-07T12:47:09.794Z,8.50
2018-04-07T12:49:38.502Z,9.37
2018-04-07T12:52:06.875Z,9.00
2018-04-07T12:54:35.250Z,10.27
2018-04-07T12:57:03.764Z,9.57
2018-04-07T12:59:32.169Z,10.03
2018-04-07T13:02:00.574Z,9.40
2018-04-07T13:04:29.259Z,8.50
2018-04-07T13:07:00.431Z,9.00
2018-04-07T13:09:28.793Z,10.20
2018-04-07T13:11:57.246Z,10.80
2018-04-07T13:14:25.676Z,9.83
2018-04-07T13:16:54.128Z,10.10
2018-04-07T13:19:22.730Z,10.10
2018-04-07T13:21:51.112Z,9.93
2018-04-07T13:24:20.224Z,9.90
2018-04-07T13:26:48.559Z,9.67
2018-04-07T13:29:16.880Z,10.20
2018-04-07T13:31:46.002Z,9.13
2018-04-07T13:34:14.720Z,10.10
2018-04-07T13:36:43.104Z,10.03
2018-04-07T13:39:11.563Z,10.10
2018-04-07T13:41:39.925Z,10.50
2018-04-07T13:44:08.283Z,11.27
2018-04-07T13:46:36.672Z,10.30
2018-04-07T13:49:05.027Z,10.43
2018-04-07T13:51:34.150Z,10.17
2018-04-07T13:54:02.539Z,10.53
2018-04-07T13:56:31.011Z,9.80
2018-04-07T13:58:59.393Z,10.17
2018-04-07T14:01:27.788Z,10.53
2018-04-07T14:03:56.173Z,11.10
2018-04-07T14:06:24.498Z,10.30
2018-04-07T14:08:52.815Z,11.27
2018-04-07T14:11:21.225Z,11.17
2018-04-07T14:13:49.561Z,11.93
2018-04-07T14:16:17.926Z,11.87
2018-04-07T14:18:46.409Z,10.80
2018-04-07T14:21:14.757Z,12.63
2018-04-07T14:23:43.256Z,11.97
2018-04-07T14:26:11.669Z,12.30
2018-04-07T14:28:40.029Z,10.17
2018-04-07T14:31:09.130Z,11.60
2018-04-07T14:33:37.505Z,12.73
2018-04-07T14:36:05.881Z,12.40
2018-04-07T14:38:34.973Z,12.20
2018-04-07T14:41:04.439Z,11.67
2018-04-07T14:43:32.794Z,11.00
2018-04-07T14:46:01.145Z,11.83
2018-04-07T14:48:29.526Z,12.60
2018-04-07T14:50:58.615Z,12.80
2018-04-07T14:53:27.715Z,12.00
2018-04-07T14:55:56.187Z,12.17
2018-04-07T14:58:25.323Z,11.97
2018-04-07T15:00:53.692Z,11.30
2018-04-07T15:03:22.180Z,11.77
2018-04-07T15:05:50.545Z,12.30
2018-04-07T15:08:18.900Z,12.43
2018-04-07T15:10:48.069Z,11.20
2018-04-07T15:13:16.442Z,11.63
2018-04-07T15:15:44.820Z,12.13
2018-04-07T15:18:13.204Z,12.10
2018-04-07T15:20:41.578Z,12.57
2018-04-07T15:23:09.910Z,12.40
2018-04-07T15:25:39.135Z,11.17
2018-04-07T15:28:07.489Z,11.40
2018-04-07T15:30:36.586Z,12.73
2018-04-07T15:33:05.850Z,12.00
2018-04-07T15:35:34.254Z,11.93
2018-04-07T15:38:02.649Z,11.80
2018-04-07T15:40:32.594Z,11.30
2018-04-07T15:43:01.237Z,11.43
2018-04-07T15:45:30.325Z,12.40
2018-04-07T15:47:59.119Z,11.50
2018-04-07T15:50:28.216Z,11.33
2018-04-07T15:52:57.316Z,10.77
2018-04-07T15:55:26.524Z,12.77
2018-04-07T15:57:54.963Z,12.00
2018-04-07T16:00:23.351Z,11.63
2018-04-07T16:02:51.735Z,11.90
2018-04-07T16:05:20.841Z,11.43
2018-04-07T16:07:49.205Z,11.67
2018-04-07T16:10:17.874Z,12.17
2018-04-07T16:12:46.210Z,12.03
2018-04-07T16:15:14.565Z,11.00
2018-04-07T16:17:43.734Z,11.53
2018-04-07T16:20:12.224Z,11.17
2018-04-07T16:22:40.559Z,13.07
2018-04-07T16:25:08.959Z,11.57
2018-04-07T16:27:37.366Z,10.67
2018-04-07T16:30:05.737Z,11.80
2018-04-07T16:32:34.253Z,10.53
2018-04-07T16:35:02.649Z,12.17
2018-04-07T16:37:30.978Z,11.20
2018-04-07T16:39:59.345Z,11.07
2018-04-07T16:42:27.658Z,11.17
2018-04-07T16:44:56.785Z,10.90
2018-04-07T16:47:25.142Z,10.17
2018-04-07T16:49:54.300Z,11.17
2018-04-07T16:52:22.820Z,11.60
2018-04-07T16:54:51.215Z,11.03
2018-04-07T16:57:20.361Z,12.37
2018-04-07T16:59:48.740Z,10.27
2018-04-07T17:02:17.104Z,10.93
2018-04-07T17:04:45.457Z,10.60
2018-04-07T17:07:13.828Z,11.93
2018-04-07T17:09:42.968Z,10.70
2018-04-07T17:12:11.349Z,10.60
2018-04-07T17:14:39.689Z,11.90
2018-04-07T17:17:08.325Z,10.33
2018-04-07T17:19:36.687Z,10.93
2018-04-07T17:22:05.056Z,11.50
2018-04-07T17:24:33.421Z,10.90
2018-04-07T17:27:01.776Z,11.27
2018-04-07T17:29:30.896Z,11.57
2018-04-07T17:31:59.255Z,10.10
2018-04-07T17:34:28.388Z,10.80
2018-04-07T17:36:56.729Z,11.20
2018-04-07T17:39:25.950Z,10.73
2018-04-07T17:41:54.309Z,11.50
2018-04-07T17:44:23.432Z,11.63
2018-04-07T17:46:51.802Z,11.20
2018-04-07T17:49:20.184Z,11.83
2018-04-07T17:51:48.527Z,12.33
2018-04-07T17:54:16.905Z,11.27
2018-04-07T17:56:46.025Z,11.70
2018-04-07T17:59:15.125Z,11.03
2018-04-07T18:01:44.431Z,11.97
2018-04-07T18:04:12.852Z,12.17
2018-04-07T18:06:41.267Z,12.10
2018-04-07T18:09:10.436Z,12.80
2018-04-07T18:11:38.820Z,11.67
2018-04-07T18:14:07.156Z,11.90
2018-04-07T18:16:35.508Z,11.40
2018-04-07T18:19:04.599Z,12.13
2018-04-07T18:21:33.716Z,13.80
2018-04-07T18:24:02.497Z,12.10
2018-04-07T18:26:30.845Z,12.57
2018-04-07T18:28:59.144Z,14.30
2018-04-07T18:31:28.296Z,13.97
2018-04-07T18:33:56.619Z,14.23
2018-04-07T18:36:24.977Z,12.67
2018-04-07T18:38:53.348Z,13.03
2018-04-07T18:41:21.801Z,13.23
2018-04-07T18:43:50.130Z,12.40
2018-04-07T18:46:19.173Z,11.70
2018-04-07T18:48:47.520Z,11.30
2018-04-07T18:51:15.861Z,12.67
2018-04-07T18:53:44.241Z,14.60
2018-04-07T18:56:16.932Z,12.47
2018-04-07T18:58:46.109Z,13.00
2018-04-07T19:01:14.515Z,11.87
2018-04-07T19:03:43.619Z,13.70
2018-04-07T19:06:13.445Z,13.50
2018-04-07T19:08:41.790Z,14.53
2018-04-07T19:13:38.708Z,12.03
2018-04-07T19:16:07.075Z,11.83
2018-04-07T19:18:35.487Z,11.80
2018-04-07T19:21:03.850Z,13.70
2018-04-07T19:23:32.212Z,14.60
2018-04-07T19:26:01.077Z,13.70
2018-04-07T19:28:30.538Z,12.47
2018-04-07T19:30:58.870Z,12.83
2018-04-07T19:33:27.969Z,13.23
2018-04-07T19:35:57.145Z,12.00
2018-04-07T19:38:25.489Z,12.03
2018-04-07T19:40:53.837Z,12.47
2018-04-07T19:43:22.217Z,11.80
2018-04-07T19:45:51.313Z,12.70
2018-04-07T19:48:20.000Z,12.73
2018-04-07T19:50:48.755Z,12.73
2018-04-07T19:53:17.149Z,13.33
2018-04-07T19:55:46.256Z,12.00
2018-04-07T19:58:14.665Z,12.57
2018-04-07T20:00:43.014Z,12.33
2018-04-07T20:03:12.137Z,11.30
2018-04-07T20:05:40.588Z,12.33
2018-04-07T20:08:09.705Z,14.23
2018-04-07T20:10:38.092Z,14.17
2018-04-07T20:13:06.538Z,14.17
2018-04-07T20:15:34.886Z,14.33
2018-04-07T20:18:03.304Z,13.10
2018-04-07T20:20:31.716Z,12.53
2018-04-07T20:23:00.035Z,13.17
2018-04-07T20:25:28.371Z,15.33
2018-04-07T20:27:56.784Z,14.10
2018-04-07T20:30:25.132Z,12.80
2018-04-07T20:32:53.467Z,13.23
2018-04-07T20:35:22.701Z,12.73
2018-04-07T20:37:51.069Z,13.60
2018-04-07T20:40:19.452Z,13.93
2018-04-07T20:42:47.798Z,12.63
2018-04-07T20:45:16.137Z,13.37
2018-04-07T20:47:44.487Z,14.47
2018-04-07T20:50:12.873Z,14.17
2018-04-07T20:52:41.236Z,14.27
2018-04-07T20:55:09.604Z,14.60
2018-04-07T20:57:38.837Z,13.60
2018-04-07T21:00:07.187Z,14.30
2018-04-07T21:02:36.288Z,13.23
2018-04-07T21:05:04.647Z,14.47
2018-04-07T21:07:33.044Z,12.20
2018-04-07T21:10:02.168Z,13.43
2018-04-07T21:12:30.544Z,12.40
2018-04-07T21:14:58.895Z,13.10
2018-04-07T21:17:27.994Z,12.90
2018-04-07T21:19:57.272Z,16.10
2018-04-07T21:22:25.622Z,15.23
2018-04-07T21:24:54.742Z,15.30
2018-04-07T21:27:23.140Z,13.10
2018-04-07T21:29:52.308Z,13.67
2018-04-07T21:32:20.717Z,13.50
2018-04-07T21:34:49.849Z,13.77
2018-04-07T21:37:18.192Z,13.37
2018-04-07T21:39:46.537Z,13.90
2018-04-07T21:42:15.190Z,13.40
2018-04-07T21:44:43.526Z,13.50
2018-04-07T21:47:11.847Z,13.83
2018-04-07T21:49:40.517Z,14.57
2018-04-07T21:52:08.877Z,14.50
2018-04-07T21:54:37.214Z,13.53
2018-04-07T21:57:05.629Z,14.83
2018-04-07T21:59:33.984Z,12.80
2018-04-07T22:02:02.371Z,13.03
2018-04-07T22:04:31.096Z,13.40
2018-04-07T22:06:59.479Z,14.90
2018-04-07T22:09:27.829Z,14.23
2018-04-07T22:11:56.233Z,14.10
2018-04-07T22:14:25.324Z,13.70
2018-04-07T22:16:54.433Z,13.93
2018-04-07T22:19:23.580Z,13.80
2018-04-07T22:21:51.937Z,14.60
2018-04-07T22:24:20.296Z,14.33
2018-04-07T22:26:49.075Z,13.30
2018-04-07T22:29:17.412Z,13.47
2018-04-07T22:31:45.787Z,13.13
2018-04-07T22:34:14.173Z,15.20
2018-04-07T22:36:42.532Z,12.93
2018-04-07T22:39:10.849Z,13.60
2018-04-07T22:41:39.990Z,13.93
2018-04-07T22:44:08.382Z,13.30
2018-04-07T22:46:36.776Z,13.80
2018-04-07T22:49:05.167Z,13.60
2018-04-07T22:51:33.765Z,15.57
2018-04-07T22:54:02.894Z,14.90
2018-04-07T22:56:31.302Z,14.20
2018-04-07T22:58:59.644Z,14.00
2018-04-07T23:01:28.712Z,13.97
2018-04-07T23:03:57.061Z,15.17
2018-04-07T23:06:25.461Z,14.73
2018-04-07T23:08:53.809Z,15.00
2018-04-07T23:11:22.412Z,15.10
2018-04-07T23:13:50.791Z,14.50
2018-04-07T23:16:19.132Z,14.97
2018-04-07T23:18:47.473Z,14.77
2018-04-07T23:21:15.821Z,15.27
2018-04-07T23:23:44.152Z,15.67
2018-04-07T23:26:13.328Z,15.30
2018-04-07T23:28:41.692Z,14.97
2018-04-07T23:31:10.230Z,14.70
2018-04-07T23:33:38.737Z,14.20
2018-04-07T23:36:07.089Z,15.77
2018-04-07T23:38:35.433Z,14.87
2018-04-07T23:41:03.841Z,14.43
2018-04-07T23:43:32.170Z,15.90
2018-04-07T23:46:00.522Z,17.13
2018-04-07T23:48:28.937Z,14.63
2018-04-07T23:50:57.313Z,15.10
2018-04-07T23:53:26.018Z,15.60
2018-04-07T23:55:55.625Z,15.20
2018-04-07T23:58:23.972Z,15.70
